createdAt,value
2023-03-15T00:01:18.562Z,67.43
2023-03-15T00:03:46.679Z,66.94
2023-03-15T00:06:13.920Z,66.99
2023-03-15T00:08:40.713Z,66.57
2023-03-15T00:11:07.671Z,66.65
2023-03-15T00:13:34.355Z,67.11
2023-03-15T00:16:05.899Z,67.62
2023-03-15T00:18:32.689Z,67.65
2023-03-15T00:20:59.347Z,67.25
2023-03-15T00:23:25.960Z,66.90
2023-03-15T00:25:53.579Z,66.69
2023-03-15T00:28:20.381Z,66.28
2023-03-15T00:30:46.969Z,66.63
2023-03-15T00:33:15.146Z,66.18
2023-03-15T00:35:45.099Z,66.52
2023-03-15T00:38:13.589Z,66.32
2023-03-15T00:40:40.474Z,66.56
2023-03-15T00:43:06.917Z,66.24
2023-03-15T00:45:33.436Z,66.44
2023-03-15T00:48:00.372Z,66.29
2023-03-15T00:50:27.084Z,66.65
2023-03-15T00:52:53.629Z,67.05
2023-03-15T00:55:21.672Z,66.82
2023-03-15T00:57:48.508Z,66.48
2023-03-15T01:00:24.410Z,66.79
2023-03-15T01:02:53.384Z,66.84
2023-03-15T01:05:21.299Z,67.34
2023-03-15T01:07:48.264Z,66.85
2023-03-15T01:10:15.932Z,66.88
2023-03-15T01:12:42.698Z,67.46
2023-03-15T01:15:13.733Z,66.60
2023-03-15T01:17:40.850Z,66.30
2023-03-15T01:20:08.660Z,66.78
2023-03-15T01:22:35.178Z,66.87
2023-03-15T01:25:01.817Z,67.50
2023-03-15T01:27:28.346Z,66.95
2023-03-15T01:29:55.239Z,67.36
2023-03-15T01:32:21.729Z,67.17
2023-03-15T01:34:48.402Z,66.74
2023-03-15T01:37:15.628Z,67.29
2023-03-15T01:39:42.814Z,66.81
2023-03-15T01:42:10.686Z,66.85
2023-03-15T01:45:02.783Z,67.15
2023-03-15T01:47:29.266Z,67.57
2023-03-15T01:50:08.525Z,67.30
2023-03-15T01:52:40.978Z,67.56
2023-03-15T01:55:14.017Z,67.49
2023-03-15T01:57:56.035Z,67.48
2023-03-15T02:00:22.753Z,67.32
2023-03-15T02:03:23.623Z,66.71
2023-03-15T02:05:59.028Z,66.53
2023-03-15T02:08:32.740Z,66.55
2023-03-15T02:11:04.547Z,66.03
2023-03-15T02:13:34.444Z,66.12
2023-03-15T02:16:01.732Z,66.41
2023-03-15T02:18:28.266Z,67.26
2023-03-15T02:21:37.682Z,66.91
2023-03-15T02:24:45.523Z,66.47
2023-03-15T02:27:12.104Z,66.15
2023-03-15T02:29:38.793Z,67.07
2023-03-15T02:32:05.588Z,67.38
2023-03-15T02:34:32.279Z,67.35
2023-03-15T02:36:58.787Z,67.60
2023-03-15T02:39:25.837Z,67.78
2023-03-15T02:41:58.544Z,68.02
2023-03-15T02:44:35.410Z,68.21
2023-03-15T02:47:11.124Z,68.82
2023-03-15T02:49:43.519Z,68.50
2023-03-15T02:52:12.048Z,68.53
2023-03-15T02:54:39.230Z,68.54
2023-03-15T02:57:05.999Z,68.73
2023-03-15T02:59:32.441Z,68.35
2023-03-15T03:01:58.966Z,68.55
2023-03-15T03:04:25.561Z,69.04
2023-03-15T03:06:52.055Z,69.22
2023-03-15T03:09:18.743Z,69.53
2023-03-15T03:11:45.280Z,69.62
2023-03-15T03:14:14.038Z,69.72
2023-03-15T03:16:42.667Z,69.66
2023-03-15T03:19:12.450Z,69.79
2023-03-15T03:21:38.915Z,70.08
2023-03-15T03:24:05.676Z,69.87
2023-03-15T03:26:32.638Z,70.03
2023-03-15T03:28:59.123Z,69.58
2023-03-15T03:31:27.924Z,69.41
2023-03-15T03:33:56.858Z,69.18
2023-03-15T03:36:24.835Z,69.13
2023-03-15T03:38:52.198Z,69.94
2023-03-15T03:41:18.658Z,70.65
2023-03-15T03:43:45.149Z,70.48
2023-03-15T03:46:11.722Z,70.48
2023-03-15T03:48:38.301Z,70.13
2023-03-15T03:51:05.508Z,70.13
2023-03-15T03:53:31.973Z,70.48
2023-03-15T03:55:58.449Z,71.02
2023-03-15T03:58:25.051Z,71.31
2023-03-15T04:00:55.622Z,71.42
2023-03-15T04:03:27.328Z,71.11
2023-03-15T04:05:56.315Z,71.43
2023-03-15T04:08:25.919Z,71.75
2023-03-15T04:10:57.684Z,71.23
2023-03-15T04:13:25.478Z,71.72
2023-03-15T04:15:52.114Z,71.95
2023-03-15T04:18:18.699Z,72.58
2023-03-15T04:20:47.560Z,72.18
2023-03-15T04:23:19.175Z,72.34
2023-03-15T04:25:49.814Z,71.79
2023-03-15T04:28:18.124Z,71.73
2023-03-15T04:30:45.712Z,71.77
2023-03-15T04:33:12.251Z,71.94
2023-03-15T04:35:39.588Z,71.57
2023-03-15T04:38:06.598Z,71.74
2023-03-15T04:40:36.744Z,72.31
2023-03-15T04:43:05.459Z,72.74
2023-03-15T04:45:32.673Z,72.75
2023-03-15T04:48:01.443Z,72.19
2023-03-15T04:50:29.711Z,71.96
2023-03-15T04:52:59.585Z,71.72
2023-03-15T04:55:26.432Z,72.28
2023-03-15T04:57:53.139Z,72.25
2023-03-15T05:00:20.236Z,72.08
2023-03-15T05:02:52.075Z,71.69
2023-03-15T05:05:18.613Z,71.81
2023-03-15T05:07:45.120Z,71.09
2023-03-15T05:10:12.087Z,71.20
2023-03-15T05:12:38.919Z,70.60
2023-03-15T05:15:06.274Z,70.75
2023-03-15T05:17:33.655Z,70.40
2023-03-15T05:20:10.422Z,70.11
2023-03-15T05:22:37.535Z,69.86
2023-03-15T05:25:04.542Z,69.86
2023-03-15T05:27:33.865Z,70.25
2023-03-15T05:30:04.573Z,70.64
2023-03-15T05:32:34.396Z,70.90
2023-03-15T05:35:02.046Z,71.25
2023-03-15T05:37:29.328Z,70.43
2023-03-15T05:39:56.335Z,71.09
2023-03-15T05:42:26.116Z,71.25
2023-03-15T05:44:53.788Z,70.95
2023-03-15T05:47:20.837Z,70.82
2023-03-15T05:49:48.875Z,71.38
2023-03-15T05:52:16.569Z,70.97
2023-03-15T05:54:43.082Z,71.45
2023-03-15T05:57:10.070Z,71.95
2023-03-15T05:59:36.637Z,71.84
2023-03-15T06:02:04.000Z,71.08
2023-03-15T06:04:30.495Z,71.10
2023-03-15T06:06:57.617Z,71.43
2023-03-15T06:09:24.119Z,70.91
2023-03-15T06:11:50.939Z,71.55
2023-03-15T06:14:17.636Z,72.21
2023-03-15T06:16:44.119Z,71.58
2023-03-15T06:19:10.608Z,70.64
2023-03-15T06:21:37.051Z,71.00
2023-03-15T06:24:03.898Z,71.46
2023-03-15T06:26:30.704Z,70.91
2023-03-15T06:28:57.414Z,70.59
2023-03-15T06:31:23.924Z,70.17
2023-03-15T06:33:50.498Z,70.37
2023-03-15T06:36:16.924Z,70.17
2023-03-15T06:38:43.416Z,69.49
2023-03-15T06:41:09.905Z,69.32
2023-03-15T06:43:36.589Z,68.99
2023-03-15T06:46:03.185Z,69.48
2023-03-15T06:48:29.856Z,69.28
2023-03-15T06:50:56.337Z,69.39
2023-03-15T06:53:22.844Z,69.55
2023-03-15T06:55:50.674Z,69.67
2023-03-15T06:58:17.842Z,70.08
2023-03-15T07:00:44.433Z,70.36
2023-03-15T07:03:10.960Z,69.73
2023-03-15T07:05:37.443Z,69.50
2023-03-15T07:08:04.319Z,69.49
2023-03-15T07:10:31.013Z,69.52
2023-03-15T07:12:57.831Z,69.41
2023-03-15T07:15:24.480Z,69.20
2023-03-15T07:17:50.976Z,69.45
2023-03-15T07:20:17.661Z,69.68
2023-03-15T07:22:45.534Z,69.45
2023-03-15T07:25:12.170Z,69.23
2023-03-15T07:27:38.738Z,68.93
2023-03-15T07:30:08.043Z,68.50
2023-03-15T07:32:34.557Z,68.57
2023-03-15T07:35:01.091Z,68.95
2023-03-15T07:37:29.204Z,68.99
2023-03-15T07:39:55.728Z,69.07
2023-03-15T07:42:22.235Z,68.40
2023-03-15T07:44:48.805Z,67.85
2023-03-15T07:47:15.240Z,67.70
2023-03-15T07:49:41.744Z,67.59
2023-03-15T07:52:08.917Z,67.77
2023-03-15T07:54:35.392Z,67.68
2023-03-15T07:57:01.832Z,67.83
2023-03-15T07:59:28.401Z,67.20
2023-03-15T08:01:55.273Z,67.25
2023-03-15T08:04:21.778Z,66.97
2023-03-15T08:06:48.309Z,66.36
2023-03-15T08:09:14.810Z,67.14
2023-03-15T08:11:42.222Z,68.13
2023-03-15T08:14:10.010Z,67.62
2023-03-15T08:16:36.630Z,67.18
2023-03-15T08:19:03.307Z,67.15
2023-03-15T08:21:29.776Z,66.92
2023-03-15T08:23:56.249Z,67.54
2023-03-15T08:26:22.695Z,67.35
2023-03-15T08:28:49.156Z,68.16
2023-03-15T08:31:15.835Z,68.13
2023-03-15T08:33:42.635Z,67.46
2023-03-15T08:36:09.759Z,67.03
2023-03-15T08:38:36.684Z,66.58
2023-03-15T08:41:03.530Z,66.62
2023-03-15T08:43:30.052Z,66.10
2023-03-15T08:46:01.248Z,66.67
2023-03-15T08:48:28.575Z,66.28
2023-03-15T08:50:55.188Z,66.07
2023-03-15T08:53:23.050Z,65.71
2023-03-15T08:55:49.678Z,66.49
2023-03-15T08:58:16.454Z,67.00
2023-03-15T09:00:43.003Z,67.28
2023-03-15T09:03:09.710Z,66.98
2023-03-15T09:05:36.403Z,66.08
2023-03-15T09:08:03.260Z,65.88
2023-03-15T09:10:29.789Z,65.68
2023-03-15T09:12:56.383Z,65.67
2023-03-15T09:15:22.954Z,65.44
2023-03-15T09:17:53.513Z,65.66
2023-03-15T09:20:22.798Z,64.99
2023-03-15T09:22:57.926Z,63.59
2023-03-15T09:25:25.883Z,63.85
2023-03-15T09:27:52.785Z,63.50
2023-03-15T09:30:20.278Z,63.93
2023-03-15T09:32:47.612Z,63.76
2023-03-15T09:35:18.456Z,63.77
2023-03-15T09:37:45.580Z,63.55
2023-03-15T09:40:39.397Z,62.87
2023-03-15T09:43:08.846Z,62.80
2023-03-15T09:46:16.718Z,62.58
2023-03-15T09:49:18.629Z,61.97
2023-03-15T09:52:09.722Z,62.36
2023-03-15T09:54:58.050Z,63.07
2023-03-15T09:57:43.905Z,63.47
2023-03-15T10:00:20.703Z,63.67
2023-03-15T10:02:59.468Z,63.37
2023-03-15T10:06:10.521Z,63.21
2023-03-15T10:08:38.084Z,63.28
2023-03-15T10:11:29.790Z,62.97
2023-03-15T10:14:22.492Z,62.68
2023-03-15T10:16:51.998Z,63.03
2023-03-15T10:19:50.889Z,62.40
2023-03-15T10:22:44.540Z,63.53
2023-03-15T10:25:26.132Z,65.01
2023-03-15T10:28:27.882Z,65.15
2023-03-15T10:31:00.796Z,65.10
2023-03-15T10:33:39.033Z,64.53
2023-03-15T10:36:19.919Z,63.61
2023-03-15T10:38:48.413Z,63.63
2023-03-15T10:41:48.552Z,62.96
2023-03-15T10:44:23.224Z,62.54
2023-03-15T10:47:23.112Z,62.12
2023-03-15T10:49:57.094Z,61.39
2023-03-15T10:52:35.198Z,60.39
2023-03-15T10:55:15.473Z,60.58
2023-03-15T10:57:56.033Z,59.22
2023-03-15T11:00:32.964Z,60.36
2023-03-15T11:03:07.963Z,60.52
2023-03-15T11:05:49.243Z,59.44
2023-03-15T11:08:41.710Z,60.23
2023-03-15T11:11:09.800Z,60.22
2023-03-15T11:13:40.302Z,59.12
2023-03-15T11:16:12.771Z,58.59
2023-03-15T11:18:58.122Z,59.02
2023-03-15T11:21:33.492Z,59.23
2023-03-15T11:24:04.439Z,58.58
2023-03-15T11:26:37.910Z,58.23
2023-03-15T11:29:21.457Z,58.33
2023-03-15T11:31:51.190Z,57.01
2023-03-15T11:34:36.403Z,57.08
2023-03-15T11:37:14.452Z,57.60
2023-03-15T11:40:11.539Z,57.63
2023-03-15T11:42:50.847Z,57.18
2023-03-15T11:45:31.689Z,57.37
2023-03-15T11:48:13.027Z,57.49
2023-03-15T11:50:40.306Z,57.39
2023-03-15T11:53:10.718Z,57.31
2023-03-15T11:55:37.655Z,57.44
2023-03-15T11:58:42.383Z,57.05
2023-03-15T12:01:23.867Z,58.14
2023-03-15T12:03:50.630Z,57.68
2023-03-15T12:06:17.106Z,57.43
2023-03-15T12:09:01.811Z,55.64
2023-03-15T12:11:28.242Z,56.66
2023-03-15T12:14:00.296Z,57.22
2023-03-15T12:16:30.931Z,57.21
2023-03-15T12:19:01.252Z,57.34
2023-03-15T12:21:40.085Z,55.20
2023-03-15T12:24:17.315Z,56.79
2023-03-15T12:26:48.195Z,56.66
2023-03-15T12:29:26.770Z,56.74
2023-03-15T12:32:02.033Z,54.26
2023-03-15T12:34:51.351Z,54.64
2023-03-15T12:37:24.371Z,55.35
2023-03-15T12:40:01.368Z,55.62
2023-03-15T12:42:31.150Z,54.83
2023-03-15T12:45:15.892Z,54.77
2023-03-15T12:47:52.187Z,54.41
2023-03-15T12:50:46.915Z,54.56
2023-03-15T12:53:31.850Z,55.07
2023-03-15T12:56:28.087Z,54.96
2023-03-15T12:59:04.813Z,55.78
2023-03-15T13:01:33.366Z,55.44
2023-03-15T13:04:00.500Z,55.94
2023-03-15T13:06:50.757Z,55.29
2023-03-15T13:09:27.408Z,53.29
2023-03-15T13:11:58.497Z,53.05
2023-03-15T13:14:59.679Z,53.52
2023-03-15T13:17:47.405Z,53.13
2023-03-15T13:20:59.994Z,53.81
2023-03-15T13:23:30.630Z,53.67
2023-03-15T13:26:09.113Z,53.76
2023-03-15T13:28:42.419Z,54.33
2023-03-15T13:31:25.685Z,53.78
2023-03-15T13:33:57.467Z,53.75
2023-03-15T13:36:38.613Z,53.44
2023-03-15T13:39:19.393Z,53.42
2023-03-15T13:41:46.413Z,53.63
2023-03-15T13:44:20.000Z,52.90
2023-03-15T13:46:49.273Z,53.17
2023-03-15T13:49:17.154Z,52.18
2023-03-15T13:51:45.796Z,51.68
2023-03-15T13:54:33.520Z,50.89
2023-03-15T13:57:06.229Z,50.29
2023-03-15T13:59:42.989Z,51.50
2023-03-15T14:02:33.152Z,51.29
2023-03-15T14:05:11.137Z,52.67
2023-03-15T14:07:44.238Z,52.51
2023-03-15T14:10:36.584Z,53.00
2023-03-15T14:13:27.485Z,52.19
2023-03-15T14:16:14.029Z,53.96
2023-03-15T14:18:42.574Z,53.94
2023-03-15T14:21:31.075Z,52.41
2023-03-15T14:23:57.723Z,53.21
2023-03-15T14:26:30.057Z,52.90
2023-03-15T14:29:08.317Z,51.67
2023-03-15T14:31:46.574Z,51.73
2023-03-15T14:34:25.179Z,51.29
2023-03-15T14:36:54.287Z,52.43
2023-03-15T14:39:30.007Z,52.28
2023-03-15T14:41:56.936Z,51.95
2023-03-15T14:44:23.400Z,51.54
2023-03-15T14:46:50.770Z,51.47
2023-03-15T14:49:26.706Z,51.28
2023-03-15T14:52:06.306Z,50.30
2023-03-15T14:54:33.911Z,51.76
2023-03-15T14:57:00.753Z,52.05
2023-03-15T14:59:27.340Z,51.49
2023-03-15T15:01:57.840Z,51.54
2023-03-15T15:04:33.409Z,51.76
2023-03-15T15:07:02.984Z,51.52
2023-03-15T15:09:31.006Z,50.12
2023-03-15T15:11:57.554Z,50.47
2023-03-15T15:14:24.225Z,50.58
2023-03-15T15:16:51.771Z,49.93
2023-03-15T15:19:18.301Z,50.52
2023-03-15T15:21:44.980Z,50.62
2023-03-15T15:24:17.004Z,51.03
2023-03-15T15:26:44.237Z,51.48
2023-03-15T15:29:14.812Z,50.84
2023-03-15T15:31:43.334Z,50.10
2023-03-15T15:34:11.990Z,50.31
2023-03-15T15:36:42.361Z,51.12
2023-03-15T15:39:30.854Z,50.53
2023-03-15T15:41:57.330Z,51.15
2023-03-15T15:44:25.899Z,50.85
2023-03-15T15:46:53.371Z,51.09
2023-03-15T15:49:20.916Z,51.02
2023-03-15T15:51:49.898Z,50.62
2023-03-15T15:54:21.564Z,51.18
2023-03-15T15:56:57.409Z,50.27
2023-03-15T15:59:27.336Z,51.33
2023-03-15T16:02:03.115Z,51.19
2023-03-15T16:04:30.736Z,51.03
2023-03-15T16:07:02.183Z,51.32
2023-03-15T16:09:35.897Z,51.57
2023-03-15T16:12:03.688Z,51.47
2023-03-15T16:14:30.475Z,51.48
2023-03-15T16:16:56.958Z,52.13
2023-03-15T16:19:23.453Z,51.53
2023-03-15T16:21:54.341Z,51.61
2023-03-15T16:24:30.103Z,51.75
2023-03-15T16:27:02.835Z,52.14
2023-03-15T16:29:39.016Z,50.85
2023-03-15T16:32:16.919Z,52.18
2023-03-15T16:34:47.240Z,52.58
2023-03-15T16:37:18.062Z,53.53
2023-03-15T16:39:52.644Z,54.11
2023-03-15T16:42:20.251Z,54.58
2023-03-15T16:44:46.846Z,54.80
2023-03-15T16:47:13.501Z,55.37
2023-03-15T16:49:40.015Z,55.12
2023-03-15T16:52:08.813Z,55.68
2023-03-15T16:54:41.323Z,56.12
2023-03-15T16:57:26.989Z,55.58
2023-03-15T16:59:53.906Z,56.27
2023-03-15T17:02:24.645Z,56.62
2023-03-15T17:04:52.792Z,56.97
2023-03-15T17:07:31.478Z,57.19
2023-03-15T17:10:00.557Z,57.17
2023-03-15T17:12:29.475Z,57.11
2023-03-15T17:14:59.142Z,57.30
2023-03-15T17:17:32.435Z,57.19
2023-03-15T17:20:00.393Z,57.06
2023-03-15T17:22:27.169Z,57.60
2023-03-15T17:24:54.065Z,58.22
2023-03-15T17:27:31.574Z,58.18
2023-03-15T17:29:58.681Z,58.77
2023-03-15T17:32:25.308Z,58.77
2023-03-15T17:34:52.243Z,58.92
2023-03-15T17:37:18.984Z,58.81
2023-03-15T17:39:47.362Z,58.88
2023-03-15T17:42:15.296Z,59.02
2023-03-15T17:44:42.353Z,58.80
2023-03-15T17:47:12.676Z,59.19
2023-03-15T17:49:39.594Z,59.45
2023-03-15T17:52:15.274Z,59.29
2023-03-15T17:54:41.839Z,59.77
2023-03-15T17:57:12.627Z,60.71
2023-03-15T17:59:39.719Z,60.33
2023-03-15T18:02:15.098Z,60.57
2023-03-15T18:04:41.911Z,61.19
2023-03-15T18:07:08.345Z,61.76
2023-03-15T18:09:34.785Z,61.97
2023-03-15T18:12:02.240Z,62.56
2023-03-15T18:14:31.092Z,62.73
2023-03-15T18:16:57.857Z,62.94
2023-03-15T18:19:25.234Z,63.42
2023-03-15T18:21:51.669Z,63.02
2023-03-15T18:24:19.070Z,62.79
2023-03-15T18:26:45.570Z,62.71
2023-03-15T18:29:12.166Z,62.52
2023-03-15T18:31:38.924Z,63.12
2023-03-15T18:34:06.655Z,63.21
2023-03-15T18:36:33.233Z,63.44
2023-03-15T18:39:00.883Z,63.21
2023-03-15T18:41:28.547Z,63.42
2023-03-15T18:43:55.051Z,63.90
2023-03-15T18:46:24.869Z,64.31
2023-03-15T18:48:56.474Z,65.60
2023-03-15T18:51:25.943Z,64.97
2023-03-15T18:53:52.696Z,65.22
2023-03-15T18:56:25.915Z,65.18
2023-03-15T18:58:54.094Z,65.70
2023-03-15T19:01:22.960Z,66.04
2023-03-15T19:03:52.442Z,66.42
2023-03-15T19:06:20.732Z,65.70
2023-03-15T19:08:53.126Z,65.92
2023-03-15T19:11:23.711Z,66.25
2023-03-15T19:13:51.203Z,67.49
2023-03-15T19:16:19.854Z,66.70
2023-03-15T19:18:47.006Z,66.08
2023-03-15T19:21:14.274Z,65.69
2023-03-15T19:23:40.795Z,66.01
2023-03-15T19:26:07.376Z,67.01
2023-03-15T19:28:33.989Z,67.36
2023-03-15T19:31:00.542Z,67.06
2023-03-15T19:33:27.094Z,66.47
2023-03-15T19:35:53.675Z,65.90
2023-03-15T19:38:20.247Z,65.35
2023-03-15T19:40:47.117Z,65.31
2023-03-15T19:43:15.027Z,65.20
2023-03-15T19:45:41.688Z,64.95
2023-03-15T19:48:08.194Z,64.92
2023-03-15T19:50:34.839Z,64.99
2023-03-15T19:53:01.448Z,65.76
2023-03-15T19:55:31.128Z,65.67
2023-03-15T19:57:58.224Z,65.68
2023-03-15T20:00:25.121Z,65.71
2023-03-15T20:02:51.807Z,65.69
2023-03-15T20:05:21.411Z,66.74
2023-03-15T20:07:51.630Z,67.35
2023-03-15T20:10:20.029Z,66.99
2023-03-15T20:12:47.250Z,66.51
2023-03-15T20:15:17.517Z,65.83
2023-03-15T20:17:45.249Z,65.48
2023-03-15T20:20:13.641Z,65.71
2023-03-15T20:22:43.633Z,67.10
2023-03-15T20:25:13.652Z,67.33
2023-03-15T20:27:41.636Z,67.45
2023-03-15T20:30:10.572Z,67.49
2023-03-15T20:32:37.189Z,67.63
2023-03-15T20:35:08.806Z,67.08
2023-03-15T20:37:39.678Z,66.64
2023-03-15T20:40:09.559Z,66.16
2023-03-15T20:42:36.265Z,66.12
2023-03-15T20:45:04.321Z,67.37
2023-03-15T20:47:31.264Z,67.34
2023-03-15T20:49:57.780Z,67.78
2023-03-15T20:52:25.167Z,67.53
2023-03-15T20:54:51.704Z,67.28
2023-03-15T20:57:18.216Z,67.63
2023-03-15T20:59:44.811Z,67.85
2023-03-15T21:02:11.353Z,67.41
2023-03-15T21:04:37.914Z,66.78
2023-03-15T21:07:04.465Z,66.32
2023-03-15T21:09:32.604Z,66.37
2023-03-15T21:12:00.076Z,66.81
2023-03-15T21:14:26.662Z,66.86
2023-03-15T21:16:53.400Z,67.06
2023-03-15T21:19:20.169Z,67.41
2023-03-15T21:21:46.948Z,68.62
2023-03-15T21:24:13.481Z,67.86
2023-03-15T21:26:40.027Z,67.85
2023-03-15T21:29:06.794Z,67.44
2023-03-15T21:31:33.333Z,66.93
2023-03-15T21:33:59.873Z,67.13
2023-03-15T21:36:26.330Z,67.88
2023-03-15T21:38:52.845Z,67.91
2023-03-15T21:41:19.349Z,67.20
2023-03-15T21:43:45.939Z,66.53
2023-03-15T21:46:13.922Z,67.22
2023-03-15T21:48:41.880Z,67.32
2023-03-15T21:51:09.036Z,66.95
2023-03-15T21:53:36.330Z,67.29
2023-03-15T21:56:04.022Z,68.06
2023-03-15T21:58:31.257Z,68.35
2023-03-15T22:01:05.663Z,68.23
2023-03-15T22:03:34.400Z,67.90
2023-03-15T22:06:01.487Z,67.74
2023-03-15T22:08:28.549Z,67.52
2023-03-15T22:10:58.400Z,67.87
2023-03-15T22:13:26.278Z,68.02
2023-03-15T22:15:53.295Z,68.65
2023-03-15T22:18:20.654Z,68.64
2023-03-15T22:20:49.774Z,68.18
2023-03-15T22:23:16.798Z,68.99
2023-03-15T22:25:43.308Z,69.09
2023-03-15T22:28:10.326Z,68.41
2023-03-15T22:30:37.095Z,68.59
2023-03-15T22:33:03.882Z,68.77
2023-03-15T22:35:30.441Z,68.94
2023-03-15T22:37:57.170Z,68.48
2023-03-15T22:40:26.990Z,69.15
2023-03-15T22:42:53.947Z,69.70
2023-03-15T22:45:21.336Z,69.00
2023-03-15T22:47:51.105Z,68.44
2023-03-15T22:50:17.914Z,68.79
2023-03-15T22:52:44.534Z,68.74
2023-03-15T22:55:11.838Z,68.84
2023-03-15T22:57:38.847Z,69.39
2023-03-15T23:00:13.447Z,69.40
2023-03-15T23:02:44.838Z,69.42
2023-03-15T23:05:13.103Z,68.67
2023-03-15T23:07:40.470Z,68.53
2023-03-15T23:10:08.566Z,68.03
2023-03-15T23:12:36.482Z,67.92
2023-03-15T23:15:04.501Z,68.52
2023-03-15T23:17:31.436Z,68.69
2023-03-15T23:19:58.246Z,69.61
2023-03-15T23:22:24.793Z,69.10
2023-03-15T23:24:51.554Z,68.67
2023-03-15T23:27:18.106Z,69.08
2023-03-15T23:29:54.148Z,68.88
2023-03-15T23:32:21.276Z,68.31
2023-03-15T23:34:48.052Z,68.19
2023-03-15T23:37:15.037Z,67.76
2023-03-15T23:39:41.969Z,67.70
2023-03-15T23:42:09.937Z,67.78
2023-03-15T23:44:36.485Z,68.03
2023-03-15T23:47:03.464Z,68.81
2023-03-15T23:49:29.978Z,69.29
2023-03-15T23:51:56.494Z,69.56
2023-03-15T23:54:23.743Z,69.17
2023-03-15T23:56:50.595Z,68.93
2023-03-15T23:59:17.428Z,68.70
